Time;durP1;ratioP1;P1;durP2;ratioP2;P2;SDS_P1;SDS_P2;PMS_P1;PMS_P2;Temp;Humidity;BMP_temperature;BMP_pressure;BME280_temperature;BME280_humidity;BME280_pressure;Samples;Min_cycle;Max_cycle;Signal;HPM_P1;HPM_P2
2022/08/01 00:00:34;;;;;;;;;;;;;;;;;;5046768;28;46872;-75
2022/08/01 00:03:00;;;;;;;;;;;;;;;;;;5029323;28;44715;-75
2022/08/01 00:05:26;;;;;;;;;;;;;;;;;;5048011;28;46401;-75
2022/08/01 00:07:53;;;;;;;;;;;;;;;;;;5044118;28;46967;-74
2022/08/01 00:10:19;;;;;;;;;;;;;;;;;;5047507;28;44668;-75
2022/08/01 00:12:45;;;;;;;;;;;;;;;;;;5029380;28;46546;-75
2022/08/01 00:15:11;;;;;;;;;;;;;;;;;;5047187;28;45833;-75
2022/08/01 00:17:37;;;;;;;;;;;;;;;;;;5045095;28;47571;-75
2022/08/01 00:20:04;;;;;;;;;;;;;;;;;;5045438;28;47971;-75
2022/08/01 00:22:30;;;;;;;;;;;;;;;;;;5047346;28;44625;-74
2022/08/01 00:24:56;;;;;;;;;;;;;;;;;;5046375;28;47587;-75
2022/08/01 00:27:23;;;;;;;;;;;;;;;;;;5044344;28;46807;-74
2022/08/01 00:29:49;;;;;;;;;;;;;;;;;;5046156;28;46135;-75
2022/08/01 00:32:35;;;;;;;;;;;;;;;;;;5048530;28;19944;-75
2022/08/01 00:35:01;;;;;;;;;;;;;;;;;;5046374;28;45672;-74
2022/08/01 00:37:29;;;;;;;;;;;;;;;;;;5026453;28;35593;-75
2022/08/01 00:39:56;;;;;;;;;;;;;;;;;;5046894;28;47330;-74
2022/08/01 00:42:23;;;;;;;;;;;;;;;;;;5046272;28;43253;-74
2022/08/01 00:44:50;;;;;;;;;;;;;;;;;;5029983;28;45782;-75
2022/08/01 00:47:16;;;;;;;;;;;;;;;;;;5027281;28;47129;-75
2022/08/01 00:49:42;;;;;;;;;;;;;;;;;;5026065;28;43801;-74
2022/08/01 00:52:08;;;;;;;;;;;;;;;;;;5043774;28;44049;-74
2022/08/01 00:54:35;;;;;;;;;;;;;;;;;;5047036;28;44737;-75
2022/08/01 00:57:01;;;;;;;;;;;;;;;;;;5028176;28;47574;-75
2022/08/01 00:59:27;;;;;;;;;;;;;;;;;;5028254;28;48220;-74
2022/08/01 01:01:53;;;;;;;;;;;;;;;;;;5026894;28;44737;-75
2022/08/01 01:04:20;;;;;;;;;;;;;;;;;;5029446;28;46674;-74
2022/08/01 01:06:46;;;;;;;;;;;;;;;;;;5044999;28;48097;-75
2022/08/01 01:09:12;;;;;;;;;;;;;;;;;;5046360;28;43673;-75
2022/08/01 01:11:38;;;;;;;;;;;;;;;;;;5027577;28;47591;-75
2022/08/01 01:14:05;;;;;;;;;;;;;;;;;;5046403;28;48008;-74
2022/08/01 01:16:31;;;;;;;;;;;;;;;;;;5045170;28;45236;-74
2022/08/01 01:18:57;;;;;;;;;;;;;;;;;;5039431;28;47154;-74
2022/08/01 01:21:23;;;;;;;;;;;;;;;;;;5043454;28;45014;-75
2022/08/01 01:23:50;;;;;;;;;;;;;;;;;;5027968;28;47415;-75
2022/08/01 01:26:16;;;;;;;;;;;;;;;;;;5044660;28;46685;-75
2022/08/01 01:28:42;;;;;;;;;;;;;;;;;;5046700;28;45507;-74
2022/08/01 01:31:09;;;;;;;;;;;;;;;;;;5043382;28;46443;-74
2022/08/01 01:33:36;;;;;;;;;;;;;;;;;;5044093;28;47012;-74
2022/08/01 01:36:02;;;;;;;;;;;;;;;;;;5046933;28;45302;-75
2022/08/01 01:38:28;;;;;;;;;;;;;;;;;;5028238;28;48112;-74
2022/08/01 01:40:54;;;;;;;;;;;;;;;;;;5026754;28;45819;-74
2022/08/01 01:43:21;;;;;;;;;;;;;;;;;;5028512;28;47559;-75
2022/08/01 01:45:47;;;;;;;;;;;;;;;;;;5044349;28;47993;-74
2022/08/01 01:48:13;;;;;;;;;;;;;;;;;;5044912;28;46034;-74
2022/08/01 01:50:39;;;;;;;;;;;;;;;;;;5045057;28;47560;-72
2022/08/01 01:53:06;;;;;;;;;;;;;;;;;;5045490;28;46354;-74
2022/08/01 01:55:32;;;;;;;;;;;;;;;;;;5046176;28;45986;-75
2022/08/01 01:57:58;;;;;;;;;;;;;;;;;;5049937;28;46484;-74
2022/08/01 02:00:24;;;;;;;;;;;;;;;;;;5031369;28;44545;-74
2022/08/01 02:02:51;;;;;;;;;;;;;;;;;;5048148;28;47718;-74
2022/08/01 02:05:17;;;;;;;;;;;;;;;;;;5049549;28;45810;-74
2022/08/01 02:07:44;;;;;;;;;;;;;;;;;;5031646;28;44767;-74
2022/08/01 02:10:10;;;;;;;;;;;;;;;;;;5049430;28;46471;-74
2022/08/01 02:12:36;;;;;;;;;;;;;;;;;;5045614;28;47008;-75
2022/08/01 02:15:03;;;;;;;;;;;;;;;;;;5048531;28;46062;-73
2022/08/01 02:17:29;;;;;;;;;;;;;;;;;;5048850;28;45360;-75
2022/08/01 02:19:55;;;;;;;;;;;;;;;;;;5048886;28;46894;-74
2022/08/01 02:22:22;;;;;;;;;;;;;;;;;;5046625;28;46494;-74
2022/08/01 02:24:48;;;;;;;;;;;;;;;;;;5029476;28;47983;-74
2022/08/01 02:27:14;;;;;;;;;;;;;;;;;;5047896;28;45851;-74
2022/08/01 02:29:40;;;;;;;;;;;;;;;;;;5031830;28;45208;-74
2022/08/01 02:32:07;;;;;;;;;;;;;;;;;;5026472;28;47323;-74
2022/08/01 02:34:33;;;;;;;;;;;;;;;;;;5045757;28;46442;-74
2022/08/01 02:36:59;;;;;;;;;;;;;;;;;;5048680;28;47509;-74
2022/08/01 02:39:26;;;;;;;;;;;;;;;;;;5048036;28;45846;-74
2022/08/01 02:41:52;;;;;;;;;;;;;;;;;;5030150;28;46543;-74
2022/08/01 02:44:18;;;;;;;;;;;;;;;;;;5047922;28;47163;-74
2022/08/01 02:46:45;;;;;;;;;;;;;;;;;;5048956;28;42256;-74
2022/08/01 02:49:11;;;;;;;;;;;;;;;;;;5046987;28;45502;-74
2022/08/01 02:51:37;;;;;;;;;;;;;;;;;;5048033;28;46924;-74
2022/08/01 02:54:04;;;;;;;;;;;;;;;;;;5047844;28;45929;-73
2022/08/01 02:56:36;;;;;;;;;;;;;;;;;;5048039;28;47428;-73
2022/08/01 02:59:02;;;;;;;;;;;;;;;;;;5030073;28;46997;-74
2022/08/01 03:01:28;;;;;;;;;;;;;;;;;;5048454;28;44706;-75
2022/08/01 03:03:55;;;;;;;;;;;;;;;;;;5030386;28;46852;-74
2022/08/01 03:06:21;;;;;;;;;;;;;;;;;;5047581;28;45008;-75
2022/08/01 03:08:48;;;;;;;;;;;;;;;;;;5046430;28;46654;-73
2022/08/01 03:11:14;;;;;;;;;;;;;;;;;;5047206;28;45952;-74
2022/08/01 03:13:41;;;;;;;;;;;;;;;;;;5029561;28;45889;-74
2022/08/01 03:16:07;;;;;;;;;;;;;;;;;;5048518;28;45795;-74
2022/08/01 03:18:33;;;;;;;;;;;;;;;;;;5047068;28;48109;-74
2022/08/01 03:21:00;;;;;;;;;;;;;;;;;;5047096;28;44814;-75
2022/08/01 03:23:26;;;;;;;;;;;;;;;;;;5047571;28;45586;-75
2022/08/01 03:26:03;;;;;;;;;;;;;;;;;;5032107;28;45061;-74
2022/08/01 03:28:29;;;;;;;;;;;;;;;;;;5047116;28;46462;-74
2022/08/01 03:30:55;;;;;;;;;;;;;;;;;;5045826;28;47006;-75
2022/08/01 03:33:21;;;;;;;;;;;;;;;;;;5046950;28;42699;-74
2022/08/01 03:35:47;;;;;;;;;;;;;;;;;;5030707;28;46322;-74
2022/08/01 03:38:14;;;;;;;;;;;;;;;;;;5043951;28;45258;-74
2022/08/01 03:40:41;;;;;;;;;;;;;;;;;;5046387;28;46132;-74
2022/08/01 03:43:08;;;;;;;;;;;;;;;;;;5048293;28;47578;-74
2022/08/01 03:45:34;;;;;;;;;;;;;;;;;;5030799;28;46999;-74
2022/08/01 03:48:00;;;;;;;;;;;;;;;;;;5027136;28;47571;-74
2022/08/01 03:50:26;;;;;;;;;;;;;;;;;;5047438;28;44490;-74
2022/08/01 03:52:53;;;;;;;;;;;;;;;;;;5029744;28;45835;-74
2022/08/01 03:55:19;;;;;;;;;;;;;;;;;;5047372;28;47494;-74
2022/08/01 03:57:45;;;;;;;;;;;;;;;;;;5044467;28;47998;-75
2022/08/01 04:00:11;;;;;;;;;;;;;;;;;;5047109;28;44549;-74
2022/08/01 04:02:38;;;;;;;;;;;;;;;;;;5048037;28;46376;-74
2022/08/01 04:05:04;;;;;;;;;;;;;;;;;;5046669;28;44950;-74
2022/08/01 04:07:30;;;;;;;;;;;;;;;;;;5043915;28;44685;-74
2022/08/01 04:09:57;;;;;;;;;;;;;;;;;;5047973;28;48029;-75
2022/08/01 04:12:23;;;;;;;;;;;;;;;;;;5047992;28;45818;-75
2022/08/01 04:14:49;;;;;;;;;;;;;;;;;;5046672;28;46293;-75
2022/08/01 04:17:15;;;;;;;;;;;;;;;;;;5042386;28;46976;-74
2022/08/01 04:19:42;;;;;;;;;;;;;;;;;;5046711;28;43484;-73
2022/08/01 04:22:08;;;;;;;;;;;;;;;;;;5046873;28;47725;-74
2022/08/01 04:24:35;;;;;;;;;;;;;;;;;;5047069;28;48125;-75
2022/08/01 04:27:01;;;;;;;;;;;;;;;;;;5044561;28;44769;-75
2022/08/01 04:29:27;;;;;;;;;;;;;;;;;;5047891;28;46352;-75
2022/08/01 04:31:54;;;;;;;;;;;;;;;;;;5047616;28;45836;-75
2022/08/01 04:34:21;;;;;;;;;;;;;;;;;;5028236;28;46579;-74
2022/08/01 04:36:47;;;;;;;;;;;;;;;;;;5044526;28;48199;-75
2022/08/01 04:39:13;;;;;;;;;;;;;;;;;;5028564;28;45871;-74
2022/08/01 04:41:39;;;;;;;;;;;;;;;;;;5029690;28;47679;-75
2022/08/01 04:44:06;;;;;;;;;;;;;;;;;;5029694;28;46271;-75
2022/08/01 04:46:32;;;;;;;;;;;;;;;;;;5045512;28;46563;-74
2022/08/01 04:49:00;;;;;;;;;;;;;;;;;;5044935;28;46563;-75
2022/08/01 04:51:26;;;;;;;;;;;;;;;;;;5044316;28;45970;-74
2022/08/01 04:53:52;;;;;;;;;;;;;;;;;;5010148;28;47529;-74
2022/08/01 04:56:19;;;;;;;;;;;;;;;;;;5028756;28;47009;-75
2022/08/01 04:58:45;;;;;;;;;;;;;;;;;;5046469;28;44669;-75
2022/08/01 05:01:11;;;;;;;;;;;;;;;;;;5046158;28;46824;-74
2022/08/01 05:03:37;;;;;;;;;;;;;;;;;;5044923;28;47259;-74
2022/08/01 05:06:04;;;;;;;;;;;;;;;;;;5045961;28;45181;-73
2022/08/01 05:08:30;;;;;;;;;;;;;;;;;;5044873;28;46429;-75
2022/08/01 05:10:56;;;;;;;;;;;;;;;;;;5047361;28;48015;-74
2022/08/01 05:13:23;;;;;;;;;;;;;;;;;;5028600;28;47565;-74
2022/08/01 05:15:49;;;;;;;;;;;;;;;;;;5029257;28;45775;-75
2022/08/01 05:18:16;;;;;;;;;;;;;;;;;;5044827;28;44801;-75
2022/08/01 05:20:42;;;;;;;;;;;;;;;;;;5047130;28;47423;-75
2022/08/01 05:23:08;;;;;;;;;;;;;;;;;;5026896;28;45993;-75
2022/08/01 05:25:35;;;;;;;;;;;;;;;;;;5047092;28;43660;-74
2022/08/01 05:28:21;;;;;;;;;;;;;;;;;;5046647;28;19929;-74
2022/08/01 05:30:48;;;;;;;;;;;;;;;;;;5027233;28;47046;-75
2022/08/01 05:33:14;;;;;;;;;;;;;;;;;;5045674;28;45928;-77
2022/08/01 05:35:40;;;;;;;;;;;;;;;;;;5030660;28;44934;-78
2022/08/01 05:38:14;;;;;;;;;;;;;;;;;;5044028;28;45811;-75
2022/08/01 05:40:40;;;;;;;;;;;;;;;;;;5046953;28;45120;-75
2022/08/01 05:43:06;;;;;;;;;;;;;;;;;;5045527;28;48103;-76
2022/08/01 05:45:32;;;;;;;;;;;;;;;;;;5043109;28;45813;-74
2022/08/01 05:47:59;;;;;;;;;;;;;;;;;;5045165;28;45432;-75
2022/08/01 05:50:25;;;;;;;;;;;;;;;;;;5045567;28;45194;-76
2022/08/01 05:52:51;;;;;;;;;;;;;;;;;;5042114;28;45821;-75
2022/08/01 05:55:17;;;;;;;;;;;;;;;;;;5041670;28;47559;-75
2022/08/01 05:57:44;;;;;;;;;;;;;;;;;;5019824;28;46147;-75
2022/08/01 06:00:12;;;;;;;;;;;;;;;;;;5042060;28;47872;-74
2022/08/01 06:02:38;;;;;;;;;;;;;;;;;;5049411;28;46566;-75
2022/08/01 06:05:05;;;;;;;;;;;;;;;;;;5031914;28;46231;-75
2022/08/01 06:07:35;;;;;;;;;;;;;;;;;;5037501;28;47604;-75
2022/08/01 06:10:01;;;;;;;;;;;;;;;;;;5064834;28;48349;-75
2022/08/01 06:12:27;;;;;;;;;;;;;;;;;;5062521;28;46275;-74
2022/08/01 06:14:58;;;;;;;;;;;;;;;;;;5028758;28;47492;-76
2022/08/01 06:17:25;;;;;;;;;;;;;;;;;;5028529;28;48597;-76
2022/08/01 06:19:51;;;;;;;;;;;;;;;;;;5028578;28;44242;-76
2022/08/01 06:22:17;;;;;;;;;;;;;;;;;;5046165;28;48440;-76
2022/08/01 06:24:43;;;;;;;;;;;;;;;;;;5031441;28;45823;-76
2022/08/01 06:27:10;;;;;;;;;;;;;;;;;;5048161;28;46525;-77
2022/08/01 06:29:48;;;;;;;;;;;;;;;;;;5066819;28;47244;-76
2022/08/01 06:32:16;;;;;;;;;;;;;;;;;;5030482;28;43481;-77
2022/08/01 06:34:52;;;;;;;;;;;;;;;;;;5032310;28;47519;-77
2022/08/01 06:37:18;;;;;;;;;;;;;;;;;;5029317;28;44884;-77
2022/08/01 06:39:45;;;;;;;;;;;;;;;;;;5030852;28;44401;-75
2022/08/01 06:42:11;;;;;;;;;;;;;;;;;;5031859;28;45189;-75
2022/08/01 06:44:37;;;;;;;;;;;;;;;;;;5035281;28;43942;-75
2022/08/01 06:47:03;;;;;;;;;;;;;;;;;;5032674;28;45591;-76
2022/08/01 06:49:30;;;;;;;;;;;;;;;;;;5043687;28;46831;-76
2022/08/01 06:51:56;;;;;;;;;;;;;;;;;;5037380;28;43133;-76
2022/08/01 06:54:22;;;;;;;;;;;;;;;;;;5033957;28;46386;-76
2022/08/01 06:56:48;;;;;;;;;;;;;;;;;;5026657;28;45747;-76
2022/08/01 06:59:15;;;;;;;;;;;;;;;;;;5051672;28;44903;-76
2022/08/01 07:01:41;;;;;;;;;;;;;;;;;;5035870;28;46992;-76
2022/08/01 07:04:07;;;;;;;;;;;;;;;;;;5032929;28;45876;-77
2022/08/01 07:06:33;;;;;;;;;;;;;;;;;;5046931;28;47777;-77
2022/08/01 07:09:01;;;;;;;;;;;;;;;;;;5047388;28;47010;-77
2022/08/01 07:11:33;;;;;;;;;;;;;;;;;;5033179;28;45047;-77
2022/08/01 07:14:00;;;;;;;;;;;;;;;;;;5031328;28;46637;-76
2022/08/01 07:16:27;;;;;;;;;;;;;;;;;;5031011;28;46448;-76
2022/08/01 07:18:53;;;;;;;;;;;;;;;;;;5030558;28;42987;-77
2022/08/01 07:21:19;;;;;;;;;;;;;;;;;;5035545;28;46347;-76
2022/08/01 07:24:05;;;;;;;;;;;;;;;;;;5036450;28;19935;-76
2022/08/01 07:26:38;;;;;;;;;;;;;;;;;;5050274;28;45634;-76
2022/08/01 07:29:05;;;;;;;;;;;;;;;;;;5051266;28;48380;-76
2022/08/01 07:31:31;;;;;;;;;;;;;;;;;;5047447;28;45083;-76
2022/08/01 07:33:57;;;;;;;;;;;;;;;;;;5049164;28;46602;-76
2022/08/01 07:36:24;;;;;;;;;;;;;;;;;;5027906;28;46144;-76
2022/08/01 07:38:50;;;;;;;;;;;;;;;;;;5030646;28;45816;-76
2022/08/01 07:41:16;;;;;;;;;;;;;;;;;;5034735;28;45741;-76
2022/08/01 07:43:42;;;;;;;;;;;;;;;;;;5035799;28;47965;-75
2022/08/01 07:46:18;;;;;;;;;;;;;;;;;;5042456;28;45313;-75
2022/08/01 07:48:44;;;;;;;;;;;;;;;;;;5053442;28;45267;-76
2022/08/01 07:51:11;;;;;;;;;;;;;;;;;;5037450;28;43223;-76
2022/08/01 07:53:38;;;;;;;;;;;;;;;;;;5028950;28;46419;-74
2022/08/01 07:56:07;;;;;;;;;;;;;;;;;;5030904;28;46402;-76
2022/08/01 07:58:33;;;;;;;;;;;;;;;;;;5028325;28;44912;-76
2022/08/01 08:01:00;;;;;;;;;;;;;;;;;;5046177;28;45213;-76
2022/08/01 08:03:26;;;;;;;;;;;;;;;;;;5049758;28;45131;-77
2022/08/01 08:05:52;;;;;;;;;;;;;;;;;;5033773;28;44874;-76
2022/08/01 08:08:25;;;;;;;;;;;;;;;;;;5036643;28;48522;-77
2022/08/01 08:10:51;;;;;;;;;;;;;;;;;;5033088;28;44605;-75
2022/08/01 08:13:20;;;;;;;;;;;;;;;;;;5036135;28;46494;-76
2022/08/01 08:15:46;;;;;;;;;;;;;;;;;;5026555;28;48110;-76
2022/08/01 08:18:13;;;;;;;;;;;;;;;;;;5050492;28;43396;-77
2022/08/01 08:20:40;;;;;;;;;;;;;;;;;;5040771;28;46536;-76
2022/08/01 08:24:19;;;;;;;;;;;;;;;;;;5034100;28;45600;-77
2022/08/01 08:26:08;;;;;;;;;;;;;;;;;;5068969;28;43231;-76
2022/08/01 08:28:34;;;;;;;;;;;;;;;;;;5036887;28;46437;-76
2022/08/01 08:31:00;;;;;;;;;;;;;;;;;;5049788;28;43261;-76
2022/08/01 08:33:27;;;;;;;;;;;;;;;;;;5029769;28;46428;-76
2022/08/01 08:35:54;;;;;;;;;;;;;;;;;;5026849;28;46459;-76
2022/08/01 08:38:20;;;;;;;;;;;;;;;;;;5027271;28;43197;-76
2022/08/01 08:40:53;;;;;;;;;;;;;;;;;;5045680;28;48863;-76
2022/08/01 08:43:20;;;;;;;;;;;;;;;;;;5031477;28;45664;-76
2022/08/01 08:45:46;;;;;;;;;;;;;;;;;;5031076;28;44695;-76
2022/08/01 08:48:24;;;;;;;;;;;;;;;;;;5050120;28;48043;-76
2022/08/01 08:50:52;;;;;;;;;;;;;;;;;;5024513;28;34452;-76
2022/08/01 08:53:19;;;;;;;;;;;;;;;;;;5014066;28;46494;-76
2022/08/01 08:55:45;;;;;;;;;;;;;;;;;;5046230;28;48460;-75
2022/08/01 08:58:21;;;;;;;;;;;;;;;;;;5029486;28;45773;-76
2022/08/01 09:00:50;;;;;;;;;;;;;;;;;;5045463;28;47626;-75
2022/08/01 09:03:16;;;;;;;;;;;;;;;;;;5028445;28;47899;-74
2022/08/01 09:05:44;;;;;;;;;;;;;;;;;;5043029;28;43929;-73
2022/08/01 09:08:10;;;;;;;;;;;;;;;;;;5026694;28;47966;-74
2022/08/01 09:10:36;;;;;;;;;;;;;;;;;;5026276;28;46148;-73
2022/08/01 09:13:03;;;;;;;;;;;;;;;;;;5021510;28;46452;-73
2022/08/01 09:15:30;;;;;;;;;;;;;;;;;;5028293;28;47356;-73
2022/08/01 09:17:59;;;;;;;;;;;;;;;;;;5045220;28;45836;-73
2022/08/01 09:20:26;;;;;;;;;;;;;;;;;;5027303;28;46327;-74
2022/08/01 09:22:52;;;;;;;;;;;;;;;;;;5045844;28;45779;-74
2022/08/01 09:25:19;;;;;;;;;;;;;;;;;;5021475;28;43565;-73
2022/08/01 09:27:46;;;;;;;;;;;;;;;;;;5027049;28;44622;-74
2022/08/01 09:30:12;;;;;;;;;;;;;;;;;;5043654;28;47361;-73
2022/08/01 09:32:39;;;;;;;;;;;;;;;;;;5045050;28;46080;-74
2022/08/01 09:35:05;;;;;;;;;;;;;;;;;;5045759;28;46147;-74
2022/08/01 09:37:31;;;;;;;;;;;;;;;;;;5023020;28;45075;-73
2022/08/01 09:40:02;;;;;;;;;;;;;;;;;;5026557;28;46025;-74
2022/08/01 09:42:29;;;;;;;;;;;;;;;;;;5027109;28;47323;-73
2022/08/01 09:44:55;;;;;;;;;;;;;;;;;;5046715;28;46278;-74
2022/08/01 09:47:21;;;;;;;;;;;;;;;;;;5041531;28;47700;-73
2022/08/01 09:49:48;;;;;;;;;;;;;;;;;;5030540;28;45764;-73
2022/08/01 09:52:17;;;;;;;;;;;;;;;;;;5024489;28;43782;-73
2022/08/01 09:54:43;;;;;;;;;;;;;;;;;;5026179;28;46454;-72
2022/08/01 09:57:09;;;;;;;;;;;;;;;;;;5045394;28;45711;-73
2022/08/01 09:59:37;;;;;;;;;;;;;;;;;;5045483;28;46672;-73
2022/08/01 10:02:22;;;;;;;;;;;;;;;;;;5025144;28;47032;-72
2022/08/01 10:04:49;;;;;;;;;;;;;;;;;;5043118;28;46324;-73
2022/08/01 10:07:15;;;;;;;;;;;;;;;;;;5040322;28;47880;-73
2022/08/01 10:09:42;;;;;;;;;;;;;;;;;;5044120;28;46904;-73
2022/08/01 10:12:08;;;;;;;;;;;;;;;;;;5027793;28;45312;-73
2022/08/01 10:14:40;;;;;;;;;;;;;;;;;;5043228;28;47432;-73
2022/08/01 10:17:06;;;;;;;;;;;;;;;;;;5035638;28;47109;-73
2022/08/01 10:19:33;;;;;;;;;;;;;;;;;;5047336;28;46469;-73
2022/08/01 10:21:59;;;;;;;;;;;;;;;;;;5048051;28;47974;-73
2022/08/01 10:24:26;;;;;;;;;;;;;;;;;;5049160;28;44721;-74
2022/08/01 10:26:52;;;;;;;;;;;;;;;;;;5049388;28;46468;-73
2022/08/01 10:29:18;;;;;;;;;;;;;;;;;;5045702;28;46982;-73
2022/08/01 10:32:04;;;;;;;;;;;;;;;;;;5046310;28;19936;-74
2022/08/01 10:34:31;;;;;;;;;;;;;;;;;;5045204;28;46475;-73
2022/08/01 10:36:57;;;;;;;;;;;;;;;;;;5044238;28;46920;-72
2022/08/01 10:39:31;;;;;;;;;;;;;;;;;;5045819;28;44688;-73
2022/08/01 10:41:57;;;;;;;;;;;;;;;;;;5046731;28;48045;-73
2022/08/01 10:44:23;;;;;;;;;;;;;;;;;;5047919;28;45685;-72
2022/08/01 10:46:50;;;;;;;;;;;;;;;;;;5029417;28;47995;-73
2022/08/01 10:49:16;;;;;;;;;;;;;;;;;;5046718;28;46909;-73
2022/08/01 10:51:42;;;;;;;;;;;;;;;;;;5047596;28;46002;-73
2022/08/01 10:54:18;;;;;;;;;;;;;;;;;;5048216;28;45486;-72
2022/08/01 10:56:44;;;;;;;;;;;;;;;;;;5048314;28;45809;-73
2022/08/01 10:59:10;;;;;;;;;;;;;;;;;;5048474;28;43742;-73
2022/08/01 11:01:39;;;;;;;;;;;;;;;;;;5045664;28;46890;-73
2022/08/01 11:04:10;;;;;;;;;;;;;;;;;;5047950;28;45031;-73
2022/08/01 11:06:42;;;;;;;;;;;;;;;;;;5023973;28;46656;-73
2022/08/01 11:09:09;;;;;;;;;;;;;;;;;;5044574;28;47945;-73
2022/08/01 11:11:35;;;;;;;;;;;;;;;;;;5045844;28;44439;-73
2022/08/01 11:14:12;;;;;;;;;;;;;;;;;;5045080;28;44689;-72
2022/08/01 11:16:38;;;;;;;;;;;;;;;;;;5021079;28;47031;-73
2022/08/01 11:19:07;;;;;;;;;;;;;;;;;;5039714;28;44940;-73
2022/08/01 11:21:34;;;;;;;;;;;;;;;;;;5043331;28;45999;-73
2022/08/01 11:24:21;;;;;;;;;;;;;;;;;;5043154;28;45045;-73
2022/08/01 11:26:47;;;;;;;;;;;;;;;;;;5043299;28;44730;-73
2022/08/01 11:29:14;;;;;;;;;;;;;;;;;;5040408;28;45448;-74
2022/08/01 11:31:46;;;;;;;;;;;;;;;;;;5044281;28;46077;-74
2022/08/01 11:34:12;;;;;;;;;;;;;;;;;;5047729;28;46459;-75
2022/08/01 11:36:38;;;;;;;;;;;;;;;;;;5043310;28;47932;-74
2022/08/01 11:39:27;;;;;;;;;;;;;;;;;;5047241;28;19930;-75
2022/08/01 11:41:55;;;;;;;;;;;;;;;;;;5026015;28;45592;-74
2022/08/01 11:44:25;;;;;;;;;;;;;;;;;;5045762;28;48417;-74
2022/08/01 11:46:51;;;;;;;;;;;;;;;;;;5044265;28;43818;-73
2022/08/01 11:49:17;;;;;;;;;;;;;;;;;;5047011;28;47236;-74
2022/08/01 11:51:43;;;;;;;;;;;;;;;;;;5027803;28;44560;-74
2022/08/01 11:54:10;;;;;;;;;;;;;;;;;;5045071;28;45010;-74
2022/08/01 11:56:36;;;;;;;;;;;;;;;;;;5046794;28;46905;-74
2022/08/01 11:59:06;;;;;;;;;;;;;;;;;;5047005;28;45980;-74
2022/08/01 12:01:32;;;;;;;;;;;;;;;;;;5045651;28;47682;-72
2022/08/01 12:03:58;;;;;;;;;;;;;;;;;;5040931;28;48249;-74
2022/08/01 12:06:25;;;;;;;;;;;;;;;;;;5029586;28;45916;-73
2022/08/01 12:08:51;;;;;;;;;;;;;;;;;;5027261;28;47945;-74
2022/08/01 12:11:17;;;;;;;;;;;;;;;;;;5039350;28;45846;-74
2022/08/01 12:13:49;;;;;;;;;;;;;;;;;;5027345;28;47577;-74
2022/08/01 12:16:15;;;;;;;;;;;;;;;;;;5045043;28;45400;-75
2022/08/01 12:18:42;;;;;;;;;;;;;;;;;;5046273;28;44734;-74
2022/08/01 12:21:08;;;;;;;;;;;;;;;;;;5027671;28;45581;-73
2022/08/01 12:23:34;;;;;;;;;;;;;;;;;;5044540;28;48099;-74
2022/08/01 12:26:01;;;;;;;;;;;;;;;;;;5048115;28;44780;-73
2022/08/01 12:28:54;;;;;;;;;;;;;;;;;;5018771;28;47180;-73
2022/08/01 12:31:20;;;;;;;;;;;;;;;;;;5032709;28;45886;-75
2022/08/01 12:33:46;;;;;;;;;;;;;;;;;;5025304;28;45759;-74
2022/08/01 12:36:13;;;;;;;;;;;;;;;;;;5045590;28;48077;-73
2022/08/01 12:38:39;;;;;;;;;;;;;;;;;;5027884;28;45790;-74
2022/08/01 12:41:06;;;;;;;;;;;;;;;;;;5044041;28;45379;-74
2022/08/01 12:43:34;;;;;;;;;;;;;;;;;;5026240;28;46518;-75
2022/08/01 12:46:00;;;;;;;;;;;;;;;;;;5028749;28;45168;-74
2022/08/01 12:48:26;;;;;;;;;;;;;;;;;;5028649;28;46474;-74
2022/08/01 12:50:53;;;;;;;;;;;;;;;;;;5028673;28;47925;-74
2022/08/01 12:53:19;;;;;;;;;;;;;;;;;;5027602;28;48082;-75
2022/08/01 12:55:52;;;;;;;;;;;;;;;;;;5042955;28;47332;-74
2022/08/01 12:58:28;;;;;;;;;;;;;;;;;;5027022;28;44274;-74
2022/08/01 13:01:18;;;;;;;;;;;;;;;;;;5024998;28;44651;-74
2022/08/01 13:04:06;;;;;;;;;;;;;;;;;;5033811;28;45311;-74
2022/08/01 13:06:35;;;;;;;;;;;;;;;;;;5034213;28;46158;-74
2022/08/01 13:09:01;;;;;;;;;;;;;;;;;;5046149;28;47792;-74
2022/08/01 13:11:28;;;;;;;;;;;;;;;;;;5043997;28;47563;-74
2022/08/01 13:13:56;;;;;;;;;;;;;;;;;;5047013;28;45369;-75
2022/08/01 13:16:25;;;;;;;;;;;;;;;;;;5027130;28;46024;-74
2022/08/01 13:19:18;;;;;;;;;;;;;;;;;;5031710;28;19952;-74
2022/08/01 13:21:44;;;;;;;;;;;;;;;;;;5044727;28;47615;-74
2022/08/01 13:24:27;;;;;;;;;;;;;;;;;;5049507;28;47102;-74
2022/08/01 13:26:55;;;;;;;;;;;;;;;;;;5045007;28;46018;-73
2022/08/01 13:29:24;;;;;;;;;;;;;;;;;;5034131;28;47461;-73
2022/08/01 13:31:57;;;;;;;;;;;;;;;;;;5023911;28;47210;-74
2022/08/01 13:34:23;;;;;;;;;;;;;;;;;;5018991;28;44629;-74
2022/08/01 13:36:50;;;;;;;;;;;;;;;;;;4952111;28;45439;-74
2022/08/01 13:42:02;;;;;;;;;;;;;;;;;;4987880;28;47878;-74
2022/08/01 13:44:29;;;;;;;;;;;;;;;;;;4964537;28;48073;-74
2022/08/01 13:46:56;;;;;;;;;;;;;;;;;;4984669;28;44693;-73
2022/08/01 13:49:24;;;;;;;;;;;;;;;;;;4996188;28;45850;-74
2022/08/01 13:51:51;;;;;;;;;;;;;;;;;;4982261;28;45340;-73
2022/08/01 13:54:17;;;;;;;;;;;;;;;;;;4980947;28;43248;-75
2022/08/01 13:56:43;;;;;;;;;;;;;;;;;;4986116;28;47851;-75
2022/08/01 13:59:10;;;;;;;;;;;;;;;;;;4976289;28;45814;-74
2022/08/01 14:01:39;;;;;;;;;;;;;;;;;;4981082;28;46496;-74
2022/08/01 14:04:05;;;;;;;;;;;;;;;;;;4995252;28;48174;-74
2022/08/01 14:06:32;;;;;;;;;;;;;;;;;;5004797;28;47291;-75
2022/08/01 14:09:00;;;;;;;;;;;;;;;;;;5019982;28;47867;-75
2022/08/01 14:11:26;;;;;;;;;;;;;;;;;;5018137;28;47218;-75
2022/08/01 14:13:55;;;;;;;;;;;;;;;;;;5004202;28;43800;-75
2022/08/01 14:16:23;;;;;;;;;;;;;;;;;;4988486;28;45144;-75
2022/08/01 14:18:52;;;;;;;;;;;;;;;;;;4989123;28;47327;-75
2022/08/01 14:21:19;;;;;;;;;;;;;;;;;;5008732;28;46477;-75
2022/08/01 14:23:47;;;;;;;;;;;;;;;;;;5004601;28;47942;-74
2022/08/01 14:26:14;;;;;;;;;;;;;;;;;;5005241;28;44758;-75
2022/08/01 14:28:40;;;;;;;;;;;;;;;;;;5006101;28;45200;-75
2022/08/01 14:31:07;;;;;;;;;;;;;;;;;;5003845;28;46969;-75
2022/08/01 14:33:33;;;;;;;;;;;;;;;;;;4988362;28;44718;-75
2022/08/01 14:36:02;;;;;;;;;;;;;;;;;;5000780;28;47509;-74
2022/08/01 14:38:49;;;;;;;;;;;;;;;;;;4999980;28;20363;-75
2022/08/01 14:41:18;;;;;;;;;;;;;;;;;;4988230;28;42454;-74
2022/08/01 14:43:47;;;;;;;;;;;;;;;;;;4986096;28;46981;-75
2022/08/01 14:46:15;;;;;;;;;;;;;;;;;;5002600;28;42915;-75
2022/08/01 14:48:41;;;;;;;;;;;;;;;;;;5003878;28;45258;-75
2022/08/01 14:51:08;;;;;;;;;;;;;;;;;;4987154;28;47172;-75
2022/08/01 14:53:48;;;;;;;;;;;;;;;;;;4989239;28;19930;-75
2022/08/01 14:56:21;;;;;;;;;;;;;;;;;;4989121;28;47630;-75
2022/08/01 14:58:52;;;;;;;;;;;;;;;;;;5005400;28;46807;-75
2022/08/01 15:01:21;;;;;;;;;;;;;;;;;;5004492;28;44539;-75
2022/08/01 15:03:49;;;;;;;;;;;;;;;;;;5009139;28;46656;-75
2022/08/01 15:06:15;;;;;;;;;;;;;;;;;;5004093;28;45811;-75
2022/08/01 15:08:42;;;;;;;;;;;;;;;;;;5007669;28;46409;-75
2022/08/01 15:11:11;;;;;;;;;;;;;;;;;;4990135;28;45961;-75
2022/08/01 15:13:38;;;;;;;;;;;;;;;;;;5014855;28;44822;-75
2022/08/01 15:16:07;;;;;;;;;;;;;;;;;;4998987;28;45022;-75
2022/08/01 15:18:34;;;;;;;;;;;;;;;;;;5007025;28;47996;-75
2022/08/01 15:21:00;;;;;;;;;;;;;;;;;;5006892;28;45848;-74
2022/08/01 15:23:27;;;;;;;;;;;;;;;;;;4999322;28;44959;-75
2022/08/01 15:25:53;;;;;;;;;;;;;;;;;;4993984;28;45914;-75
2022/08/01 15:28:20;;;;;;;;;;;;;;;;;;5006535;28;47392;-75
2022/08/01 15:30:46;;;;;;;;;;;;;;;;;;5007745;28;44662;-75
2022/08/01 15:33:12;;;;;;;;;;;;;;;;;;5008490;28;45724;-75
2022/08/01 15:35:42;;;;;;;;;;;;;;;;;;5005829;28;46778;-75
2022/08/01 15:38:08;;;;;;;;;;;;;;;;;;5002929;28;45990;-75
2022/08/01 15:40:34;;;;;;;;;;;;;;;;;;5003921;28;44741;-75
2022/08/01 15:43:01;;;;;;;;;;;;;;;;;;4988276;28;47869;-75
2022/08/01 15:45:29;;;;;;;;;;;;;;;;;;4988349;28;44915;-74
2022/08/01 15:48:12;;;;;;;;;;;;;;;;;;5007471;28;44372;-75
2022/08/01 15:50:38;;;;;;;;;;;;;;;;;;5005129;28;48388;-75
2022/08/01 15:53:07;;;;;;;;;;;;;;;;;;4989924;28;44633;-75
2022/08/01 15:55:33;;;;;;;;;;;;;;;;;;4990537;28;46472;-75
2022/08/01 15:58:00;;;;;;;;;;;;;;;;;;5000013;28;46979;-75
2022/08/01 16:00:26;;;;;;;;;;;;;;;;;;5007836;28;42666;-75
2022/08/01 16:03:00;;;;;;;;;;;;;;;;;;5008197;28;47574;-75
2022/08/01 16:05:26;;;;;;;;;;;;;;;;;;5013084;28;46986;-75
2022/08/01 16:07:53;;;;;;;;;;;;;;;;;;5007781;28;44749;-75
2022/08/01 16:10:25;;;;;;;;;;;;;;;;;;5004741;28;46885;-75
2022/08/01 16:12:51;;;;;;;;;;;;;;;;;;5008423;28;44592;-75
2022/08/01 16:15:17;;;;;;;;;;;;;;;;;;5006623;28;45942;-75
2022/08/01 16:17:47;;;;;;;;;;;;;;;;;;5006377;28;48345;-75
2022/08/01 16:20:13;;;;;;;;;;;;;;;;;;5006556;28;45703;-75
2022/08/01 16:22:39;;;;;;;;;;;;;;;;;;5001949;28;47736;-75
2022/08/01 16:25:06;;;;;;;;;;;;;;;;;;5005288;28;48101;-75
2022/08/01 16:27:34;;;;;;;;;;;;;;;;;;5003484;28;44204;-74
2022/08/01 16:30:00;;;;;;;;;;;;;;;;;;5007427;28;47568;-74
2022/08/01 16:32:27;;;;;;;;;;;;;;;;;;5005951;28;45807;-75
2022/08/01 16:35:12;;;;;;;;;;;;;;;;;;4992864;28;46926;-75
2022/08/01 16:37:39;;;;;;;;;;;;;;;;;;5006538;28;47121;-74
2022/08/01 16:40:11;;;;;;;;;;;;;;;;;;5004263;28;43512;-75
2022/08/01 16:42:38;;;;;;;;;;;;;;;;;;4982522;28;47421;-74
2022/08/01 16:45:04;;;;;;;;;;;;;;;;;;5006363;28;45635;-74
2022/08/01 16:47:40;;;;;;;;;;;;;;;;;;5005232;28;42639;-74
2022/08/01 16:50:08;;;;;;;;;;;;;;;;;;5005504;28;47869;-74
2022/08/01 16:52:34;;;;;;;;;;;;;;;;;;5004985;28;46294;-74